Time;durP1;ratioP1;P1;durP2;ratioP2;P2;SDS_P1;SDS_P2;PMS_P1;PMS_P2;Temp;Humidity;BMP_temperature;BMP_pressure;BME280_temperature;BME280_humidity;BME280_pressure;Samples;Min_cycle;Max_cycle;Signal;HPM_P1;HPM_P2
2022/06/08 00:11:38;;;;;;;6.70;2.95;;;;;;;;;;6066696;23;20059;-86
2022/06/08 00:25:15;;;;;;;5.35;2.88;;;;;;;;;;6056533;23;20062;-86
2022/06/08 00:30:03;;;;;;;5.30;2.85;;;;;;;;;;6067087;23;20158;-85
2022/06/08 00:34:03;;;;;;;6.07;2.90;;;;;;;;;;5943076;24;20027;-86
2022/06/08 00:37:35;;;;;;;8.55;3.50;;;;;;;;;;5980526;24;20032;-86
2022/06/08 00:41:53;;;;;;;5.97;2.80;;;;;;;;;;5944157;24;20035;-87
2022/06/08 00:49:00;;;;;;;7.82;3.13;;;;;;;;;;5944866;24;20048;-85
2022/06/08 00:52:28;;;;;;;7.18;3.30;;;;;;;;;;5937363;24;20199;-86
2022/06/08 00:55:41;;;;;;;;;;;;;;;;;;5955337;24;20032;-87
2022/06/08 00:58:37;;;;;;;8.25;3.08;;;;;;;;;;5964026;24;19918;-86
2022/06/08 01:02:04;;;;;;;4.90;2.58;;;;;;;;;;5930046;24;20039;-85
2022/06/08 01:05:28;;;;;;;6.70;2.85;;;;;;;;;;5942467;24;20024;-85
2022/06/08 01:28:18;;;;;;;5.47;2.97;;;;;;;;;;6009098;23;20019;-87
2022/06/08 01:32:19;;;;;;;5.45;3.65;;;;;;;;;;5922225;24;20623;-86
2022/06/08 01:35:42;;;;;;;5.28;2.60;;;;;;;;;;5942713;24;20029;-86
2022/06/08 01:38:44;;;;;;;5.95;3.10;;;;;;;;;;5931137;24;20056;-86
2022/06/08 01:42:02;;;;;;;5.03;2.88;;;;;;;;;;5995191;23;20020;-86
2022/06/08 01:45:28;;;;;;;6.38;3.17;;;;;;;;;;5980990;24;20035;-85
2022/06/08 03:00:02;;;;;;;9.48;4.05;;;;;;;;;;6303674;22;20518;-87
2022/06/08 03:03:00;;;;;;;5.72;3.78;;;;;;;;;;6276058;22;20455;-86
2022/06/08 03:05:55;;;;;;;8.70;4.72;;;;;;;;;;6270802;22;20030;-87
2022/06/08 03:58:03;;;;;;;7.18;3.70;;;;;;;;;;6312437;22;20110;-94
2022/06/08 04:02:37;;;;;;;8.00;4.40;;;;;;;;;;6292757;22;20617;-86
2022/06/08 04:10:26;;;;;;;9.75;4.45;;;;;;;;;;6233949;23;20028;-85
2022/06/08 04:14:10;;;;;;;9.23;4.80;;;;;;;;;;6233462;23;20020;-86
2022/06/08 04:50:22;;;;;;;9.77;5.13;;;;;;;;;;6310442;22;20426;-85
2022/06/08 04:54:38;;;;;;;10.55;4.88;;;;;;;;;;6115374;23;20538;-85
2022/06/08 04:57:22;;;;;;;10.00;5.25;;;;;;;;;;6140997;23;20026;-85
2022/06/08 05:01:46;;;;;;;9.63;5.32;;;;;;;;;;6038197;23;20031;-85
2022/06/08 05:05:35;;;;;;;13.55;5.85;;;;;;;;;;6057376;23;20050;-87
2022/06/08 05:09:08;;;;;;;10.60;5.72;;;;;;;;;;6022265;23;20023;-83
2022/06/08 05:11:45;;;;;;;13.00;6.15;;;;;;;;;;6037901;23;20075;-83
2022/06/08 05:14:37;;;;;;;8.95;6.07;;;;;;;;;;6014333;23;20774;-83
2022/06/08 05:17:22;;;;;;;10.00;5.68;;;;;;;;;;6015544;23;20870;-86
2022/06/08 05:20:07;;;;;;;11.57;5.53;;;;;;;;;;6013952;23;20739;-83
2022/06/08 05:22:37;;;;;;;11.60;6.07;;;;;;;;;;6038313;23;20114;-83
2022/06/08 05:25:11;;;;;;;16.00;6.00;;;;;;;;;;6030152;23;20030;-83
2022/06/08 05:27:39;;;;;;;10.13;6.10;;;;;;;;;;6067999;23;20106;-84
2022/06/08 05:30:21;;;;;;;18.40;6.82;;;;;;;;;;6018838;23;20044;-84
2022/06/08 05:32:49;;;;;;;10.93;6.25;;;;;;;;;;6072469;23;20467;-84
2022/06/08 05:36:23;;;;;;;12.43;6.35;;;;;;;;;;6091212;23;20027;-85
2022/06/08 05:40:44;;;;;;;14.23;6.47;;;;;;;;;;6140903;23;20025;-86
2022/06/08 05:43:25;;;;;;;12.27;6.38;;;;;;;;;;6142663;23;20026;-85
2022/06/08 05:45:55;;;;;;;17.75;6.57;;;;;;;;;;6188261;23;20080;-84
2022/06/08 05:48:23;;;;;;;13.63;6.68;;;;;;;;;;6160803;23;20504;-84
2022/06/08 05:51:16;;;;;;;13.40;7.38;;;;;;;;;;6151873;23;20035;-84
2022/06/08 05:53:51;;;;;;;12.15;7.38;;;;;;;;;;6116314;23;20412;-83
2022/06/08 05:56:19;;;;;;;15.68;7.35;;;;;;;;;;6185617;23;20091;-83
2022/06/08 05:59:01;;;;;;;15.35;7.25;;;;;;;;;;6128967;23;20095;-84
2022/06/08 06:02:03;;;;;;;17.58;7.40;;;;;;;;;;6183360;23;20056;-83
2022/06/08 06:04:32;;;;;;;11.63;6.40;;;;;;;;;;6185585;23;20372;-82
2022/06/08 06:07:25;;;;;;;11.23;6.03;;;;;;;;;;6186125;23;20028;-82
2022/06/08 06:10:18;;;;;;;12.93;7.28;;;;;;;;;;6233995;23;20028;-82
2022/06/08 06:12:54;;;;;;;13.63;7.18;;;;;;;;;;6221890;23;20039;-82
2022/06/08 06:15:51;;;;;;;14.95;7.30;;;;;;;;;;6228781;22;20015;-83
2022/06/08 06:18:19;;;;;;;15.18;8.43;;;;;;;;;;6309918;22;20019;-82
2022/06/08 06:20:57;;;;;;;13.02;6.15;;;;;;;;;;6309729;22;20033;-82
2022/06/08 06:23:56;;;;;;;12.25;6.60;;;;;;;;;;6311629;22;20757;-82
2022/06/08 06:26:49;;;;;;;12.30;6.20;;;;;;;;;;6311062;22;20027;-82
2022/06/08 06:29:21;;;;;;;10.82;6.07;;;;;;;;;;6311304;22;20022;-82
2022/06/08 06:32:23;;;;;;;10.45;5.65;;;;;;;;;;6295107;22;20065;-82
2022/06/08 06:34:55;;;;;;;13.10;6.07;;;;;;;;;;6274013;22;20019;-83
2022/06/08 06:37:23;;;;;;;8.82;5.72;;;;;;;;;;6309700;22;20023;-82
2022/06/08 06:39:54;;;;;;;11.57;6.05;;;;;;;;;;6283982;22;20046;-82
2022/06/08 06:42:48;;;;;;;9.88;5.43;;;;;;;;;;6298421;22;20015;-82
2022/06/08 06:45:41;;;;;;;9.55;5.45;;;;;;;;;;6308327;22;20023;-83
2022/06/08 06:48:19;;;;;;;9.77;5.30;;;;;;;;;;6307183;22;20022;-85
2022/06/08 06:51:38;;;;;;;13.43;5.15;;;;;;;;;;6281476;22;20396;-85
2022/06/08 07:00:26;;;;;;;11.00;4.85;;;;;;;;;;6077989;23;20197;-84
2022/06/08 07:04:41;;;;;;;9.32;5.03;;;;;;;;;;6047305;23;20379;-85
2022/06/08 07:09:11;;;;;;;11.57;5.20;;;;;;;;;;5972046;24;20032;-85
2022/06/08 07:13:28;;;;;;;11.23;4.85;;;;;;;;;;5970378;24;20016;-84
2022/06/08 07:17:36;;;;;;;11.05;5.45;;;;;;;;;;5970782;24;20040;-84
2022/06/08 07:22:04;;;;;;;9.73;4.80;;;;;;;;;;5916725;24;20494;-85
2022/06/08 07:26:51;;;;;;;13.23;4.38;;;;;;;;;;5847662;24;20026;-85
2022/06/08 07:31:40;;;;;;;13.40;4.90;;;;;;;;;;5765256;24;20054;-85
2022/06/08 07:36:12;;;;;;;11.27;4.35;;;;;;;;;;5604593;25;20103;-85
2022/06/08 07:40:20;;;;;;;12.43;4.93;;;;;;;;;;5613737;25;20042;-84
2022/06/08 07:45:07;;;;;;;10.38;4.72;;;;;;;;;;5626861;25;20041;-85
2022/06/08 07:49:49;;;;;;;7.93;4.43;;;;;;;;;;5612107;25;20070;-84
2022/06/08 07:58:30;;;;;;;12.27;5.35;;;;;;;;;;5699308;25;20068;-85
2022/06/08 08:02:57;;;;;;;9.15;5.03;;;;;;;;;;5770407;24;20031;-84
2022/06/08 08:07:29;;;;;;;9.38;4.93;;;;;;;;;;5755879;24;20032;-84
2022/06/08 08:12:05;;;;;;;6.32;3.97;;;;;;;;;;5782597;24;20118;-84
2022/06/08 08:16:15;;;;;;;10.40;4.50;;;;;;;;;;5862712;24;20104;-85
2022/06/08 08:20:46;;;;;;;9.45;4.07;;;;;;;;;;5974061;23;20102;-85
2022/06/08 08:24:52;;;;;;;7.30;3.95;;;;;;;;;;6015761;23;20135;-85
2022/06/08 08:28:54;;;;;;;10.13;4.55;;;;;;;;;;6004674;23;20044;-84
2022/06/08 08:33:22;;;;;;;7.70;4.05;;;;;;;;;;5955279;24;20039;-84
2022/06/08 08:37:56;;;;;;;8.10;3.85;;;;;;;;;;5888061;24;20033;-85
2022/06/08 08:46:05;;;;;;;10.02;4.35;;;;;;;;;;5862550;24;20034;-84
2022/06/08 09:00:18;;;;;;;10.15;4.47;;;;;;;;;;5771209;24;20030;-85
2022/06/08 09:04:57;;;;;;;10.98;4.88;;;;;;;;;;5750868;24;20062;-85
2022/06/08 09:09:34;;;;;;;9.05;4.90;;;;;;;;;;5890178;24;20451;-85
2022/06/08 09:14:26;;;;;;;8.73;3.60;;;;;;;;;;5945125;24;20024;-85
2022/06/08 09:18:47;;;;;;;9.00;4.78;;;;;;;;;;5860126;24;20066;-85
2022/06/08 09:22:08;;;;;;;10.52;5.20;;;;;;;;;;5847776;24;20651;-84
2022/06/08 09:26:18;;;;;;;9.38;4.85;;;;;;;;;;5931826;24;20033;-85
2022/06/08 09:31:27;;;;;;;7.65;4.43;;;;;;;;;;5812434;24;20026;-85
2022/06/08 09:36:26;;;;;;;8.25;4.97;;;;;;;;;;5756267;24;20070;-85
2022/06/08 09:46:06;;;;;;;8.00;4.60;;;;;;;;;;5739398;25;20685;-86
2022/06/08 09:55:45;;;;;;;10.70;5.30;;;;;;;;;;5712569;25;20212;-86
2022/06/08 09:59:36;;;;;;;9.27;4.68;;;;;;;;;;5701798;25;20256;-85
2022/06/08 10:03:24;;;;;;;10.25;5.72;;;;;;;;;;5661117;25;20431;-85
2022/06/08 11:40:27;;;;;;;7.82;4.97;;;;;;;;;;6217567;22;1283721;-86
2022/06/08 11:43:01;;;;;;;5.95;4.18;;;;;;;;;;6279060;22;20593;-85
2022/06/08 11:45:44;;;;;;;6.32;4.28;;;;;;;;;;6279972;22;20569;-84
2022/06/08 11:48:49;;;;;;;7.40;4.13;;;;;;;;;;6280047;22;20022;-85
2022/06/08 11:51:40;;;;;;;7.05;4.60;;;;;;;;;;6279364;22;20019;-85
2022/06/08 11:54:36;;;;;;;6.68;4.80;;;;;;;;;;6279360;22;20535;-86
2022/06/08 11:57:10;;;;;;;8.93;5.25;;;;;;;;;;6264285;22;20106;-85
2022/06/08 11:59:43;;;;;;;6.20;4.78;;;;;;;;;;6279088;22;20050;-86
2022/06/08 12:02:24;;;;;;;7.57;4.93;;;;;;;;;;6278023;22;20593;-85
2022/06/08 12:04:57;;;;;;;7.68;5.10;;;;;;;;;;6279567;22;20019;-85
2022/06/08 12:07:59;;;;;;;6.88;4.55;;;;;;;;;;6279436;22;20604;-85
2022/06/08 12:11:21;;;;;;;7.97;4.57;;;;;;;;;;6279066;22;20098;-85
2022/06/08 12:13:55;;;;;;;6.82;4.68;;;;;;;;;;6279653;22;20020;-85
2022/06/08 12:16:27;;;;;;;8.43;5.18;;;;;;;;;;6278181;22;20050;-85
2022/06/08 12:19:20;;;;;;;7.15;5.05;;;;;;;;;;6279021;22;20576;-85
2022/06/08 12:22:17;;;;;;;6.15;4.18;;;;;;;;;;6278174;22;20007;-85
2022/06/08 12:25:10;;;;;;;5.87;4.57;;;;;;;;;;6279193;22;20026;-85
2022/06/08 12:27:44;;;;;;;7.35;4.63;;;;;;;;;;6278021;22;20103;-85
2022/06/08 12:30:44;;;;;;;6.25;4.82;;;;;;;;;;6278815;22;20019;-86
2022/06/08 12:33:35;;;;;;;8.80;5.35;;;;;;;;;;6278840;22;20026;-87
2022/06/08 12:36:31;;;;;;;6.78;4.43;;;;;;;;;;6240520;22;20390;-85
2022/06/08 12:39:14;;;;;;;6.00;4.68;;;;;;;;;;6279458;22;20016;-84
2022/06/08 12:41:43;;;;;;;6.82;3.88;;;;;;;;;;6277923;22;20052;-84
2022/06/08 12:44:24;;;;;;;7.15;4.03;;;;;;;;;;6279209;22;20077;-84
2022/06/08 12:47:13;;;;;;;7.15;3.95;;;;;;;;;;6215527;22;20027;-85
2022/06/08 12:49:47;;;;;;;6.60;4.07;;;;;;;;;;6280424;22;20012;-85
2022/06/08 12:52:28;;;;;;;5.17;4.00;;;;;;;;;;6280277;22;20050;-85
2022/06/08 12:54:56;;;;;;;6.20;4.28;;;;;;;;;;6280052;22;20020;-85
2022/06/08 12:57:30;;;;;;;9.10;4.18;;;;;;;;;;6280796;22;20023;-85
2022/06/08 12:59:59;;;;;;;9.60;3.83;;;;;;;;;;6279374;22;20015;-86
2022/06/08 13:02:39;;;;;;;6.50;3.58;;;;;;;;;;6277947;22;20077;-85
2022/06/08 13:05:26;;;;;;;6.88;3.55;;;;;;;;;;6278788;22;20099;-85
2022/06/08 13:07:56;;;;;;;5.60;3.75;;;;;;;;;;6280632;22;20015;-86
2022/06/08 13:10:28;;;;;;;8.40;3.67;;;;;;;;;;6284367;22;20093;-85
2022/06/08 13:13:03;;;;;;;5.70;3.80;;;;;;;;;;6286478;22;20027;-84
2022/06/08 13:15:37;;;;;;;5.63;3.85;;;;;;;;;;6279535;22;20024;-85
2022/06/08 13:18:07;;;;;;;5.87;3.50;;;;;;;;;;6278548;22;20082;-84
2022/06/08 13:20:39;;;;;;;5.50;4.10;;;;;;;;;;6280943;22;20043;-85
2022/06/08 13:23:31;;;;;;;5.47;4.00;;;;;;;;;;6284049;22;20452;-86
2022/06/08 13:26:27;;;;;;;9.70;4.60;;;;;;;;;;6281237;22;20012;-85
2022/06/08 13:28:59;;;;;;;4.93;3.55;;;;;;;;;;6280165;22;20470;-84
2022/06/08 13:31:51;;;;;;;5.68;4.00;;;;;;;;;;6276758;22;20011;-85
2022/06/08 13:34:24;;;;;;;5.15;3.92;;;;;;;;;;6277959;22;20451;-85
2022/06/08 13:36:54;;;;;;;5.65;3.90;;;;;;;;;;6278139;22;20030;-85
2022/06/08 13:39:42;;;;;;;5.53;4.10;;;;;;;;;;6267092;22;20485;-85
2022/06/08 13:42:33;;;;;;;7.18;3.58;;;;;;;;;;6277146;22;20333;-85
2022/06/08 13:45:03;;;;;;;5.07;3.38;;;;;;;;;;6277094;22;20015;-85
2022/06/08 13:47:35;;;;;;;5.28;3.63;;;;;;;;;;6277551;22;20042;-85
2022/06/08 13:50:06;;;;;;;8.50;4.13;;;;;;;;;;6251413;22;20016;-83
2022/06/08 13:52:35;;;;;;;5.85;3.40;;;;;;;;;;6275662;22;20016;-87
2022/06/08 13:55:18;;;;;;;5.03;3.77;;;;;;;;;;6279937;22;20053;-84
2022/06/08 13:58:12;;;;;;;5.82;3.90;;;;;;;;;;6279725;22;20012;-84
2022/06/08 14:00:44;;;;;;;5.57;3.63;;;;;;;;;;6278513;22;20027;-85
2022/06/08 14:03:21;;;;;;;6.30;3.50;;;;;;;;;;6279138;22;20103;-84
2022/06/08 14:14:14;;;;;;;5.43;3.25;;;;;;;;;;6281424;22;20054;-86
2022/06/08 14:16:54;;;;;;;4.57;2.97;;;;;;;;;;6279305;22;20031;-87
2022/06/08 14:19:31;;;;;;;4.93;3.47;;;;;;;;;;6253145;22;20266;-86
2022/06/08 14:22:07;;;;;;;5.45;3.20;;;;;;;;;;6278881;22;20026;-86
2022/06/08 14:24:39;;;;;;;4.45;3.33;;;;;;;;;;6242160;22;20023;-87
2022/06/08 14:27:09;;;;;;;12.48;6.32;;;;;;;;;;6281846;22;20051;-85
2022/06/08 14:29:37;;;;;;;9.57;5.78;;;;;;;;;;6253454;22;20024;-86
2022/06/08 14:32:17;;;;;;;8.35;4.68;;;;;;;;;;6276620;22;20041;-85
2022/06/08 14:34:47;;;;;;;6.70;3.83;;;;;;;;;;6278145;22;20023;-85
2022/06/08 14:37:22;;;;;;;4.30;2.67;;;;;;;;;;6276927;22;20398;-84
2022/06/08 14:39:55;;;;;;;5.90;3.40;;;;;;;;;;6278711;22;20018;-85
2022/06/08 14:42:23;;;;;;;4.43;2.92;;;;;;;;;;6278146;22;20276;-85
2022/06/08 14:44:51;;;;;;;4.55;3.00;;;;;;;;;;6277376;22;20019;-84
2022/06/08 14:47:29;;;;;;;4.82;3.00;;;;;;;;;;6276269;22;20015;-84
2022/06/08 14:49:57;;;;;;;8.10;4.85;;;;;;;;;;6277511;22;20046;-84
2022/06/08 14:52:26;;;;;;;6.95;4.43;;;;;;;;;;6239880;22;20366;-84
2022/06/08 14:54:53;;;;;;;6.88;3.85;;;;;;;;;;6277472;22;20023;-84
2022/06/08 14:57:31;;;;;;;5.35;3.65;;;;;;;;;;6277693;22;20015;-84
2022/06/08 15:00:16;;;;;;;16.15;8.48;;;;;;;;;;6278143;22;20107;-84
2022/06/08 15:02:49;;;;;;;13.82;7.60;;;;;;;;;;6238543;22;20024;-84
2022/06/08 15:05:22;;;;;;;6.15;3.72;;;;;;;;;;6278280;22;20054;-84
2022/06/08 15:07:50;;;;;;;4.78;2.88;;;;;;;;;;6278656;22;20026;-84
2022/06/08 15:10:18;;;;;;;3.72;2.60;;;;;;;;;;6280144;22;20019;-84
2022/06/08 15:13:09;;;;;;;6.75;3.35;;;;;;;;;;6279487;22;20011;-84
2022/06/08 15:15:37;;;;;;;5.80;3.00;;;;;;;;;;6280800;22;20127;-84
2022/06/08 15:18:11;;;;;;;4.70;3.20;;;;;;;;;;6280787;22;20549;-84
2022/06/08 15:22:53;;;;;;;5.95;4.05;;;;;;;;;;5071259;28;20370;-94
2022/06/08 15:25:35;;;;;;;10.85;3.38;;;;;;;;;;5179345;23;20036;-93
2022/06/08 15:28:25;;;;;;;4.97;3.17;;;;;;;;;;5065518;28;20045;-93
2022/06/08 15:30:53;;;;;;;5.30;3.55;;;;;;;;;;5048305;28;20048;-93
2022/06/08 15:33:45;;;;;;;4.38;3.30;;;;;;;;;;5063833;28;20028;-94
2022/06/08 15:36:17;;;;;;;4.53;3.03;;;;;;;;;;5065879;28;20048;-92
2022/06/08 15:38:55;;;;;;;4.38;2.95;;;;;;;;;;5057892;28;20045;-92
2022/06/08 15:41:24;;;;;;;4.60;2.92;;;;;;;;;;5068433;28;20045;-93
2022/06/08 15:44:19;;;;;;;4.05;2.42;;;;;;;;;;5062710;28;20095;-93
2022/06/08 15:46:48;;;;;;;3.88;2.38;;;;;;;;;;5068277;28;20099;-94
2022/06/08 15:49:18;;;;;;;6.18;2.95;;;;;;;;;;5069938;28;20056;-94
2022/06/08 15:51:51;;;;;;;5.35;2.80;;;;;;;;;;5051624;28;20378;-93
2022/06/08 15:54:26;;;;;;;4.45;2.60;;;;;;;;;;5071193;28;20041;-93
2022/06/08 15:57:01;;;;;;;5.30;3.00;;;;;;;;;;5042145;28;20139;-93
2022/06/08 15:59:49;;;;;;;5.80;2.67;;;;;;;;;;5041671;28;20307;-94
2022/06/08 16:02:41;;;;;;;3.95;2.70;;;;;;;;;;5062185;28;20066;-94
2022/06/08 16:05:09;;;;;;;4.50;2.67;;;;;;;;;;5037856;28;20512;-93
2022/06/08 16:07:37;;;;;;;4.90;2.78;;;;;;;;;;5070889;28;20036;-94
2022/06/08 16:10:09;;;;;;;6.78;3.20;;;;;;;;;;5055172;28;20045;-94
2022/06/08 16:12:37;;;;;;;4.60;2.60;;;;;;;;;;5070309;28;20531;-94
2022/06/08 16:15:10;;;;;;;5.00;3.08;;;;;;;;;;5047488;28;20050;-93
2022/06/08 16:17:37;;;;;;;6.05;2.72;;;;;;;;;;5068780;28;20036;-94
2022/06/08 16:20:07;;;;;;;4.32;2.75;;;;;;;;;;5068864;28;20037;-94
2022/06/08 16:22:36;;;;;;;4.80;2.80;;;;;;;;;;5048603;28;20036;-94
2022/06/08 16:25:08;;;;;;;4.53;3.05;;;;;;;;;;5052580;28;20500;-94
2022/06/08 16:28:02;;;;;;;4.40;3.10;;;;;;;;;;5044656;28;20037;-94
2022/06/08 16:31:19;;;;;;;4.82;3.20;;;;;;;;;;5048834;28;20040;-93
2022/06/08 16:33:47;;;;;;;4.55;3.10;;;;;;;;;;5057537;28;20436;-94
2022/06/08 16:36:21;;;;;;;6.13;3.28;;;;;;;;;;5055950;28;20045;-94
2022/06/08 16:38:49;;;;;;;4.53;2.70;;;;;;;;;;5034393;28;20072;-91
2022/06/08 16:41:17;;;;;;;4.68;2.78;;;;;;;;;;5036535;28;20034;-95
2022/06/08 16:43:51;;;;;;;4.57;2.90;;;;;;;;;;5027685;28;20041;-94
2022/06/08 16:46:20;;;;;;;5.30;3.08;;;;;;;;;;5053129;28;20037;-94
2022/06/08 16:48:47;;;;;;;4.30;2.95;;;;;;;;;;5039544;28;20481;-94
2022/06/08 16:51:21;;;;;;;6.33;3.70;;;;;;;;;;5035359;28;20482;-92
2022/06/08 16:54:13;;;;;;;4.80;3.20;;;;;;;;;;5036127;28;20029;-94
2022/06/08 16:59:41;;;;;;;5.93;3.40;;;;;;;;;;5044633;28;20478;-94
2022/06/08 17:02:19;;;;;;;5.50;3.30;;;;;;;;;;5024752;28;20041;-94
2022/06/08 17:04:56;;;;;;;4.50;3.13;;;;;;;;;;5032835;28;20520;-94
2022/06/08 17:07:50;;;;;;;4.40;3.10;;;;;;;;;;5050842;28;20114;-94
2022/06/08 17:10:18;;;;;;;5.15;3.40;;;;;;;;;;5038763;28;20041;-94
2022/06/08 17:12:45;;;;;;;5.10;3.17;;;;;;;;;;5055923;28;20033;-94
2022/06/08 17:15:38;;;;;;;5.10;2.85;;;;;;;;;;5040992;28;20044;-94
2022/06/08 17:18:05;;;;;;;5.25;3.20;;;;;;;;;;5038837;28;20040;-95
2022/06/08 17:20:33;;;;;;;4.70;3.10;;;;;;;;;;5035743;28;20053;-94
2022/06/08 17:23:05;;;;;;;6.60;3.30;;;;;;;;;;5035966;28;20045;-94
2022/06/08 17:25:34;;;;;;;4.70;3.15;;;;;;;;;;5055025;28;20144;-95
2022/06/08 17:28:04;;;;;;;5.40;3.13;;;;;;;;;;5039299;28;20044;-94
2022/06/08 17:30:33;;;;;;;6.20;3.10;;;;;;;;;;5038956;28;20044;-94
2022/06/08 17:33:02;;;;;;;4.72;3.10;;;;;;;;;;5049533;28;20048;-94
2022/06/08 17:35:35;;;;;;;4.93;2.97;;;;;;;;;;5036887;28;20045;-94
2022/06/08 17:38:03;;;;;;;4.75;2.80;;;;;;;;;;5043325;28;20044;-94
2022/06/08 17:43:25;;;;;;;4.15;2.80;;;;;;;;;;5039208;28;20068;-93
2022/06/08 17:46:17;;;;;;;5.82;3.22;;;;;;;;;;5034616;28;20056;-94
2022/06/08 17:48:45;;;;;;;5.25;3.03;;;;;;;;;;5054658;28;20040;-94
2022/06/08 17:51:14;;;;;;;4.93;2.97;;;;;;;;;;5055235;28;20047;-95
2022/06/08 17:53:48;;;;;;;4.28;2.72;;;;;;;;;;5050670;28;20041;-94
2022/06/08 17:56:16;;;;;;;4.40;2.75;;;;;;;;;;5034627;28;20048;-94
2022/06/08 17:58:51;;;;;;;4.45;2.80;;;;;;;;;;5055945;28;20037;-94
2022/06/08 18:01:19;;;;;;;5.45;3.00;;;;;;;;;;5038451;28;20052;-93
2022/06/08 18:03:47;;;;;;;9.85;3.10;;;;;;;;;;5018720;28;20053;-95
2022/06/08 18:06:15;;;;;;;3.83;2.63;;;;;;;;;;5055765;28;20048;-95
2022/06/08 18:08:43;;;;;;;4.90;2.72;;;;;;;;;;5054802;28;20060;-95
2022/06/08 18:14:21;;;;;;;4.57;2.85;;;;;;;;;;5055968;28;20032;-94
2022/06/08 18:16:54;;;;;;;5.18;2.80;;;;;;;;;;5023571;28;20072;-94
2022/06/08 18:19:21;;;;;;;3.78;2.38;;;;;;;;;;5036084;28;20060;-95
2022/06/08 18:21:49;;;;;;;5.00;2.50;;;;;;;;;;5037452;28;20041;-95
2022/06/08 18:24:22;;;;;;;3.53;2.33;;;;;;;;;;5038578;28;20040;-95
2022/06/08 18:26:56;;;;;;;4.03;2.58;;;;;;;;;;5019262;28;20055;-95
2022/06/08 18:29:28;;;;;;;3.88;2.58;;;;;;;;;;5054189;28;20048;-93
2022/06/08 18:32:03;;;;;;;4.80;2.50;;;;;;;;;;5044686;28;20045;-94
2022/06/08 18:34:32;;;;;;;6.50;2.72;;;;;;;;;;5038276;28;20095;-93
2022/06/08 18:36:59;;;;;;;7.40;3.20;;;;;;;;;;5025425;28;20064;-94
2022/06/08 18:39:31;;;;;;;4.65;2.80;;;;;;;;;;5018854;28;20046;-94
2022/06/08 18:41:59;;;;;;;4.50;2.72;;;;;;;;;;5034130;28;20121;-94
2022/06/08 18:44:27;;;;;;;4.40;2.40;;;;;;;;;;5063900;28;20040;-93
2022/06/08 18:46:55;;;;;;;3.42;2.40;;;;;;;;;;5061063;28;20063;-93
2022/06/08 18:49:47;;;;;;;5.72;2.47;;;;;;;;;;5034462;28;20029;-95
2022/06/08 18:52:15;;;;;;;6.03;2.60;;;;;;;;;;5017352;28;20528;-95
2022/06/08 18:55:10;;;;;;;5.00;2.33;;;;;;;;;;5073832;28;20044;-94
2022/06/08 18:57:37;;;;;;;3.90;2.65;;;;;;;;;;5033534;28;20045;-94
2022/06/08 19:00:06;;;;;;;3.85;2.53;;;;;;;;;;5036286;28;20049;-94
2022/06/08 19:02:34;;;;;;;5.38;2.30;;;;;;;;;;5046721;28;20548;-94
2022/06/08 19:05:01;;;;;;;5.00;2.47;;;;;;;;;;5033880;28;20048;-94
2022/06/08 19:07:33;;;;;;;3.88;2.53;;;;;;;;;;5019306;28;20041;-95
2022/06/08 19:10:02;;;;;;;4.03;2.22;;;;;;;;;;5006971;28;20502;-95
2022/06/08 19:12:32;;;;;;;3.45;2.30;;;;;;;;;;5038825;28;20087;-94
2022/06/08 19:15:34;;;;;;;3.33;2.17;;;;;;;;;;5064723;28;20493;-94
2022/06/08 19:20:55;;;;;;;4.43;2.33;;;;;;;;;;5037955;28;20075;-93
2022/06/08 19:23:27;;;;;;;3.40;2.30;;;;;;;;;;5055189;28;20091;-93
2022/06/08 19:25:55;;;;;;;5.38;2.60;;;;;;;;;;5055253;28;20053;-95
2022/06/08 19:28:24;;;;;;;6.60;2.60;;;;;;;;;;5055733;28;20037;-95
2022/06/08 19:30:55;;;;;;;5.50;2.50;;;;;;;;;;5070435;28;20075;-94
2022/06/08 19:33:29;;;;;;;3.08;2.08;;;;;;;;;;5045235;28;20045;-93
2022/06/08 19:35:59;;;;;;;4.07;2.58;;;;;;;;;;5044422;28;20387;-95
2022/06/08 19:38:27;;;;;;;4.45;2.70;;;;;;;;;;5044731;28;20132;-96
2022/06/08 19:40:57;;;;;;;4.80;2.72;;;;;;;;;;5026332;28;20057;-94
2022/06/08 19:43:26;;;;;;;5.03;2.90;;;;;;;;;;5025486;28;20490;-95
2022/06/08 19:45:56;;;;;;;4.25;2.80;;;;;;;;;;5027328;28;20499;-91
2022/06/08 19:48:28;;;;;;;6.22;2.53;;;;;;;;;;5035188;28;20050;-91
2022/06/08 19:50:57;;;;;;;3.80;2.80;;;;;;;;;;5034412;28;20510;-91
2022/06/08 19:53:32;;;;;;;4.40;2.70;;;;;;;;;;5024629;28;20041;-90
2022/06/08 19:56:01;;;;;;;5.72;3.00;;;;;;;;;;5057093;28;20137;-90
2022/06/08 19:58:30;;;;;;;4.68;2.58;;;;;;;;;;5053974;28;20425;-90
2022/06/08 20:00:57;;;;;;;5.05;2.00;;;;;;;;;;5049670;28;20045;-91
2022/06/08 20:03:51;;;;;;;4.47;2.10;;;;;;;;;;5034660;28;20498;-91
2022/06/08 20:06:39;;;;;;;2.65;1.45;;;;;;;;;;5034439;28;20429;-92
2022/06/08 20:09:11;;;;;;;3.53;1.50;;;;;;;;;;5041848;28;20049;-90
2022/06/08 20:11:42;;;;;;;3.22;1.38;;;;;;;;;;5053186;28;20049;-89
2022/06/08 20:14:15;;;;;;;3.90;1.70;;;;;;;;;;5041996;28;20102;-89
2022/06/08 20:16:44;;;;;;;3.45;2.05;;;;;;;;;;5057863;28;20083;-91
2022/06/08 20:19:35;;;;;;;3.17;1.92;;;;;;;;;;5041489;28;20036;-89
2022/06/08 20:22:08;;;;;;;3.60;1.75;;;;;;;;;;5050201;28;20512;-92
2022/06/08 20:24:36;;;;;;;5.65;1.73;;;;;;;;;;5052916;28;20043;-91
2022/06/08 20:27:06;;;;;;;5.72;2.03;;;;;;;;;;5031913;28;20041;-93
2022/06/08 20:29:39;;;;;;;3.67;1.63;;;;;;;;;;5047412;28;20517;-93
2022/06/08 20:32:07;;;;;;;3.67;1.67;;;;;;;;;;5055289;28;20037;-92
2022/06/08 20:34:59;;;;;;;14.57;3.40;;;;;;;;;;5056418;28;20563;-92
2022/06/08 20:37:32;;;;;;;5.45;1.90;;;;;;;;;;5035690;28;20053;-91
2022/06/08 20:39:59;;;;;;;3.20;1.73;;;;;;;;;;5046936;28;20042;-91
2022/06/08 20:42:28;;;;;;;3.72;1.50;;;;;;;;;;5024516;28;20571;-92
2022/06/08 20:44:57;;;;;;;4.78;2.00;;;;;;;;;;5057811;28;20049;-92
2022/06/08 20:47:25;;;;;;;4.57;1.55;;;;;;;;;;5038843;28;20394;-90
2022/06/08 20:49:53;;;;;;;4.10;1.70;;;;;;;;;;5041673;28;20047;-90
2022/06/08 20:52:28;;;;;;;4.82;1.85;;;;;;;;;;5044382;28;20148;-93
2022/06/08 21:01:16;;;;;;;3.50;1.80;;;;;;;;;;5041277;28;19920;-91
2022/06/08 21:03:43;;;;;;;3.28;1.67;;;;;;;;;;5020954;28;20056;-90
2022/06/08 21:06:13;;;;;;;3.03;1.58;;;;;;;;;;5040865;28;20059;-91
2022/06/08 21:08:47;;;;;;;3.58;1.80;;;;;;;;;;5066417;28;20049;-96
2022/06/08 21:14:16;;;;;;;4.23;1.83;;;;;;;;;;5409169;22;20048;-92
2022/06/08 21:17:03;;;;;;;5.88;2.20;;;;;;;;;;5017084;28;20183;-93
2022/06/08 21:19:31;;;;;;;5.47;2.20;;;;;;;;;;5036057;28;20053;-92
2022/06/08 21:21:59;;;;;;;5.88;2.13;;;;;;;;;;5033152;28;20106;-93
2022/06/08 21:24:27;;;;;;;3.58;2.20;;;;;;;;;;5019214;28;20060;-93
2022/06/08 21:26:59;;;;;;;4.47;2.05;;;;;;;;;;5038040;28;20140;-93
2022/06/08 21:29:27;;;;;;;5.40;2.55;;;;;;;;;;5031496;28;20045;-85
2022/06/08 21:31:55;;;;;;;3.72;2.20;;;;;;;;;;5031273;28;20410;-85
2022/06/08 21:34:23;;;;;;;5.97;2.50;;;;;;;;;;5029641;28;20179;-85
2022/06/08 21:36:51;;;;;;;4.85;2.60;;;;;;;;;;5033277;28;20178;-85
2022/06/08 21:39:21;;;;;;;7.53;2.60;;;;;;;;;;5032886;28;20471;-85
2022/06/08 21:41:50;;;;;;;6.95;2.80;;;;;;;;;;5032293;28;20045;-86
2022/06/08 21:44:23;;;;;;;5.53;2.78;;;;;;;;;;5033478;28;20064;-85
2022/06/08 21:46:52;;;;;;;4.43;2.80;;;;;;;;;;5032223;28;20040;-85
2022/06/08 21:49:22;;;;;;;5.07;3.17;;;;;;;;;;5033565;28;20045;-85
2022/06/08 21:51:50;;;;;;;5.45;3.13;;;;;;;;;;5030421;28;20592;-85
2022/06/08 21:54:24;;;;;;;6.13;3.60;;;;;;;;;;5033029;28;20056;-85
2022/06/08 21:56:52;;;;;;;5.57;3.45;;;;;;;;;;5032124;28;20040;-85
2022/06/08 21:59:19;;;;;;;7.57;3.20;;;;;;;;;;5032757;28;20140;-85
2022/06/08 22:01:52;;;;;;;5.25;3.38;;;;;;;;;;5031114;28;20079;-85
2022/06/08 22:04:21;;;;;;;4.88;3.45;;;;;;;;;;5032315;28;20041;-86
2022/06/08 22:06:49;;;;;;;6.05;3.53;;;;;;;;;;5032692;28;20054;-86
2022/06/08 22:09:42;;;;;;;6.38;3.25;;;;;;;;;;5015427;28;20037;-86
2022/06/08 22:12:15;;;;;;;6.93;3.30;;;;;;;;;;5032389;28;20049;-86
2022/06/08 22:15:19;;;;;;;6.97;3.25;;;;;;;;;;5033383;28;20045;-89
2022/06/08 22:17:47;;;;;;;4.97;3.33;;;;;;;;;;5026483;28;20047;-89
2022/06/08 22:20:18;;;;;;;6.00;3.45;;;;;;;;;;5033178;28;20044;-88
2022/06/08 22:22:53;;;;;;;7.45;3.60;;;;;;;;;;5032907;28;20041;-89
2022/06/08 22:25:24;;;;;;;9.52;4.20;;;;;;;;;;5032458;28;20463;-85
2022/06/08 22:27:51;;;;;;;12.05;5.78;;;;;;;;;;5031229;28;20096;-85
2022/06/08 22:30:19;;;;;;;8.60;5.40;;;;;;;;;;5032976;28;20131;-86
2022/06/08 22:32:48;;;;;;;8.05;5.05;;;;;;;;;;5031085;28;20072;-86
2022/06/08 22:35:20;;;;;;;7.55;4.28;;;;;;;;;;5031763;28;20053;-86
2022/06/08 22:37:47;;;;;;;8.55;4.43;;;;;;;;;;5032893;28;20418;-86
2022/06/08 22:40:41;;;;;;;7.85;4.05;;;;;;;;;;5033545;28;20044;-84
2022/06/08 22:43:12;;;;;;;6.53;3.47;;;;;;;;;;5032580;28;20061;-86
2022/06/08 22:45:40;;;;;;;8.43;4.00;;;;;;;;;;5033393;28;20048;-85
2022/06/08 22:48:08;;;;;;;7.85;3.83;;;;;;;;;;5031926;28;20053;-86
2022/06/08 22:50:39;;;;;;;6.03;3.55;;;;;;;;;;5032237;28;20494;-86
2022/06/08 22:53:13;;;;;;;8.52;3.38;;;;;;;;;;5031788;28;20123;-86
2022/06/08 22:55:44;;;;;;;8.57;4.03;;;;;;;;;;5033087;28;20071;-84
2022/06/08 22:58:37;;;;;;;6.95;3.03;;;;;;;;;;5032943;28;20049;-86
2022/06/08 23:01:05;;;;;;;6.70;3.40;;;;;;;;;;5031350;28;20061;-85
2022/06/08 23:03:34;;;;;;;6.88;3.55;;;;;;;;;;5016906;28;20062;-90
2022/06/08 23:06:10;;;;;;;7.82;3.67;;;;;;;;;;5015522;28;20056;-90
2022/06/08 23:08:44;;;;;;;8.13;3.38;;;;;;;;;;5035134;28;20044;-90